Time;durP1;ratioP1;P1;durP2;ratioP2;P2;SDS_P1;SDS_P2;PMS_P1;PMS_P2;Temp;Humidity;BMP_temperature;BMP_pressure;BME280_temperature;BME280_humidity;BME280_pressure;Samples;Min_cycle;Max_cycle;Signal;HPM_P1;HPM_P2
2021/05/22 00:02:16;;;;;;;3.88;2.15;;;;;;;12.60;58.58;98775.41;5117694;27;20031;-92
2021/05/22 00:04:42;;;;;;;7.22;2.40;;;;;;;12.65;59.62;98784.09;5120893;27;20438;-92
2021/05/22 00:07:07;;;;;;;5.32;2.50;;;;;;;12.51;60.40;98775.69;5118264;27;20438;-93
2021/05/22 00:09:34;;;;;;;5.90;3.17;;;;;;;12.40;60.87;98776.06;5120018;27;20063;-93
2021/05/22 00:12:00;;;;;;;4.10;2.10;;;;;;;12.28;60.42;98771.19;5127850;27;20067;-92
2021/05/22 00:14:27;;;;;;;7.05;2.60;;;;;;;12.35;59.35;98780.69;5117920;27;20071;-92
2021/05/22 00:16:52;;;;;;;6.18;2.78;;;;;;;12.44;58.70;98791.03;5117148;27;20032;-92
2021/05/22 00:19:19;;;;;;;5.82;2.20;;;;;;;12.49;58.70;98788.22;5117246;27;20051;-92
2021/05/22 00:21:44;;;;;;;6.75;2.20;;;;;;;12.44;58.51;98780.38;5119627;27;20039;-92
2021/05/22 00:24:11;;;;;;;5.57;2.42;;;;;;;12.36;59.14;98770.91;5117664;27;20031;-92
2021/05/22 00:26:38;;;;;;;4.28;2.40;;;;;;;12.38;59.97;98779.72;5121366;27;20392;-91
2021/05/22 00:29:04;;;;;;;3.85;2.15;;;;;;;12.19;61.23;98776.78;5117192;27;20038;-92
2021/05/22 00:31:32;;;;;;;4.80;2.72;;;;;;;11.98;60.92;98755.28;5121325;27;20040;-92
2021/05/22 00:33:57;;;;;;;3.97;2.30;;;;;;;11.87;61.26;98747.59;5128821;27;20082;-92
2021/05/22 00:36:23;;;;;;;3.78;2.03;;;;;;;11.83;60.93;98750.41;5115748;28;20500;-93
2021/05/22 00:38:49;;;;;;;3.42;2.10;;;;;;;11.85;60.40;98748.56;5117065;27;20046;-93
2021/05/22 00:41:15;;;;;;;4.78;2.30;;;;;;;11.81;61.25;98745.13;5115761;28;20040;-92
2021/05/22 00:43:42;;;;;;;5.75;2.13;;;;;;;11.74;61.46;98732.94;5116646;27;20058;-92
2021/05/22 00:46:08;;;;;;;5.78;2.17;;;;;;;11.69;60.63;98719.78;5114666;28;20038;-93
2021/05/22 00:48:34;;;;;;;6.15;2.25;;;;;;;11.82;61.71;98716.69;5114957;28;20541;-92
2021/05/22 00:51:00;;;;;;;7.22;2.40;;;;;;;12.02;58.76;98722.28;5116054;28;20027;-93
2021/05/22 00:53:26;;;;;;;5.88;2.63;;;;;;;12.00;58.33;98710.78;5115954;28;20040;-92
2021/05/22 00:55:52;;;;;;;6.47;2.05;;;;;;;12.25;56.78;98720.59;5117504;27;20038;-91
2021/05/22 00:58:18;;;;;;;3.85;2.17;;;;;;;12.32;56.88;98722.16;5118851;27;20043;-93
2021/05/22 01:00:48;;;;;;;5.35;2.20;;;;;;;12.34;55.09;98714.97;5118082;27;20447;-92
2021/05/22 01:03:17;;;;;;;4.53;2.20;;;;;;;12.40;54.34;98701.41;5116012;27;20083;-92
2021/05/22 01:05:45;;;;;;;4.50;2.50;;;;;;;12.58;53.72;98701.66;5123995;27;20032;-92
2021/05/22 01:08:15;;;;;;;4.57;2.05;;;;;;;12.49;54.05;98682.41;5115571;28;20074;-92
2021/05/22 01:10:43;;;;;;;3.85;2.13;;;;;;;12.45;53.61;98683.47;5116549;27;20039;-93
2021/05/22 01:13:10;;;;;;;3.60;2.22;;;;;;;12.52;53.77;98686.78;5115534;28;20134;-94
2021/05/22 01:15:37;;;;;;;3.15;1.90;;;;;;;12.33;55.02;98679.41;5114092;28;20044;-92
2021/05/22 01:18:04;;;;;;;3.95;2.08;;;;;;;12.27;54.37;98687.66;5122189;27;20044;-92
2021/05/22 01:20:36;;;;;;;3.33;2.00;;;;;;;12.24;54.05;98670.88;5115015;28;20582;-92
2021/05/22 01:23:07;;;;;;;5.00;2.15;;;;;;;12.29;54.39;98674.25;5118872;27;20039;-92
2021/05/22 01:25:37;;;;;;;3.80;1.80;;;;;;;12.21;54.57;98666.53;5120439;27;20044;-92
2021/05/22 01:28:05;;;;;;;3.30;2.10;;;;;;;12.22;56.32;98678.06;5123744;27;20040;-92
2021/05/22 01:30:32;;;;;;;4.57;2.30;;;;;;;12.11;55.90;98671.31;5115385;27;20510;-93
2021/05/22 01:32:58;;;;;;;4.55;1.98;;;;;;;12.03;56.02;98660.03;5115962;27;20043;-93
2021/05/22 01:35:24;;;;;;;3.50;2.15;;;;;;;12.18;54.44;98669.28;5120480;27;20134;-93
2021/05/22 01:37:50;;;;;;;3.08;2.05;;;;;;;12.28;53.04;98669.84;5120691;27;20031;-93
2021/05/22 01:40:16;;;;;;;4.18;2.05;;;;;;;12.32;52.79;98652.81;5125422;27;20377;-91
2021/05/22 01:42:43;;;;;;;4.75;2.00;;;;;;;12.31;52.57;98659.06;5119580;27;20047;-91
2021/05/22 01:45:13;;;;;;;4.05;2.00;;;;;;;12.22;53.52;98662.94;5116792;27;20039;-92
2021/05/22 01:47:42;;;;;;;3.92;2.13;;;;;;;12.18;54.88;98666.63;5114587;28;20122;-92
2021/05/22 01:50:10;;;;;;;3.60;1.83;;;;;;;12.11;54.65;98660.66;5117503;27;20488;-92
2021/05/22 01:52:38;;;;;;;4.00;2.10;;;;;;;12.12;53.02;98675.72;5120049;27;20035;-91
2021/05/22 01:55:05;;;;;;;3.55;2.08;;;;;;;12.13;53.54;98682.78;5117946;27;20058;-92
2021/05/22 01:57:34;;;;;;;4.13;1.85;;;;;;;12.23;52.97;98694.03;5115152;27;20038;-92
2021/05/22 02:00:00;;;;;;;6.00;2.60;;;;;;;12.36;51.38;98690.91;5121471;27;20095;-92
2021/05/22 02:02:27;;;;;;;3.20;1.80;;;;;;;12.38;51.18;98692.56;5116082;27;20514;-91
2021/05/22 02:04:55;;;;;;;6.53;2.07;;;;;;;12.42;50.63;98690.69;5118509;27;20624;-92
2021/05/22 02:07:21;;;;;;;7.50;1.90;;;;;;;12.28;51.05;98672.53;5121444;27;20242;-92
2021/05/22 02:09:49;;;;;;;4.00;2.10;;;;;;;12.29;50.75;98672.44;5126191;27;20045;-91
2021/05/22 02:12:15;;;;;;;2.63;1.95;;;;;;;12.27;51.63;98674.31;5119829;27;20035;-92
2021/05/22 02:14:43;;;;;;;3.55;1.80;;;;;;;12.23;51.82;98677.13;5119457;28;20043;-93
2021/05/22 02:17:13;;;;;;;2.17;1.73;;;;;;;12.35;51.21;98691.84;5113957;28;20043;-92
2021/05/22 02:19:44;;;;;;;4.60;1.95;;;;;;;12.31;51.27;98680.41;5118565;28;20035;-92
2021/05/22 02:22:15;;;;;;;3.00;1.90;;;;;;;12.36;50.80;98694.47;5115844;28;20420;-93
2021/05/22 02:24:41;;;;;;;3.15;1.92;;;;;;;12.33;52.25;98691.88;5125016;28;20402;-93
2021/05/22 02:27:07;;;;;;;3.80;1.90;;;;;;;12.29;53.30;98688.44;5123281;27;20043;-92
2021/05/22 02:29:36;;;;;;;3.92;1.90;;;;;;;12.13;52.81;98673.94;5115790;28;20050;-91
2021/05/22 02:32:05;;;;;;;5.07;2.10;;;;;;;12.01;53.16;98661.00;5117279;28;20047;-92
2021/05/22 02:34:36;;;;;;;3.88;2.10;;;;;;;12.06;54.58;98678.59;5118487;28;20101;-92
2021/05/22 02:37:03;;;;;;;4.00;1.85;;;;;;;11.97;54.71;98672.69;5114087;28;20051;-92
2021/05/22 02:39:31;;;;;;;4.05;2.38;;;;;;;11.92;53.85;98686.19;5114466;28;20047;-90
2021/05/22 02:42:01;;;;;;;5.25;2.20;;;;;;;11.84;54.90;98688.19;5114103;28;20036;-91
2021/05/22 02:44:28;;;;;;;2.33;1.80;;;;;;;11.87;54.39;98704.97;5113970;28;20039;-92
2021/05/22 02:46:55;;;;;;;3.85;1.77;;;;;;;11.82;54.13;98690.94;5117563;28;20036;-92
2021/05/22 02:49:26;;;;;;;2.90;2.00;;;;;;;11.64;55.72;98665.75;5119903;28;20065;-92
2021/05/22 02:51:56;;;;;;;6.00;2.08;;;;;;;11.57;54.96;98645.59;5117814;28;20365;-92
2021/05/22 02:54:24;;;;;;;3.15;1.90;;;;;;;11.69;54.06;98673.63;5122655;28;20038;-94
2021/05/22 02:56:53;;;;;;;4.20;1.97;;;;;;;11.74;53.10;98661.00;5118053;28;20046;-92
2021/05/22 02:59:20;;;;;;;2.75;1.70;;;;;;;11.69;53.12;98641.66;5127087;27;20062;-91
2021/05/22 03:01:46;;;;;;;5.63;1.90;;;;;;;11.75;53.26;98652.09;5120127;28;20047;-93
2021/05/22 03:04:13;;;;;;;3.08;1.85;;;;;;;11.81;53.99;98648.34;5118640;28;20043;-92
2021/05/22 03:06:41;;;;;;;4.50;2.00;;;;;;;11.83;52.43;98638.50;5118197;28;20038;-92
2021/05/22 03:09:07;;;;;;;5.93;1.90;;;;;;;11.84;51.32;98635.81;5113999;28;20086;-92
2021/05/22 03:11:34;;;;;;;3.28;1.90;;;;;;;11.88;51.17;98631.25;5118261;28;20147;-92
2021/05/22 03:14:00;;;;;;;3.63;1.73;;;;;;;12.20;50.37;98642.59;5119192;27;20509;-92
2021/05/22 03:16:26;;;;;;;4.10;1.90;;;;;;;12.33;47.82;98633.22;5124351;27;20035;-92
2021/05/22 03:18:51;;;;;;;4.00;1.73;;;;;;;12.41;48.14;98641.81;5128235;27;20038;-92
2021/05/22 03:21:17;;;;;;;2.58;1.52;;;;;;;12.33;49.05;98646.56;5122087;27;20046;-92
2021/05/22 03:23:43;;;;;;;3.83;1.85;;;;;;;12.46;48.09;98642.50;5127053;27;20065;-92
2021/05/22 03:26:10;;;;;;;2.80;1.80;;;;;;;12.65;46.45;98640.03;5121377;27;20057;-91
2021/05/22 03:28:36;;;;;;;6.07;1.90;;;;;;;12.65;46.98;98650.72;5117591;28;20130;-92
2021/05/22 03:31:01;;;;;;;3.67;1.70;;;;;;;12.55;47.68;98657.31;5119570;27;20147;-93
2021/05/22 03:33:27;;;;;;;3.03;1.73;;;;;;;12.43;47.62;98645.31;5122843;27;20036;-91
2021/05/22 03:35:53;;;;;;;4.78;2.58;;;;;;;12.44;48.00;98656.84;5127533;27;20442;-92
2021/05/22 03:38:19;;;;;;;2.53;1.73;;;;;;;12.28;50.77;98645.88;5125974;27;20058;-94
2021/05/22 03:40:46;;;;;;;2.40;1.60;;;;;;;12.32;47.62;98658.16;5123023;27;20047;-91
2021/05/22 03:43:13;;;;;;;2.35;1.70;;;;;;;12.28;50.39;98645.88;5117453;27;20139;-94
2021/05/22 03:45:38;;;;;;;2.70;1.60;;;;;;;12.24;48.23;98652.22;5125192;27;20130;-92
2021/05/22 03:48:05;;;;;;;3.70;1.70;;;;;;;12.23;47.86;98648.69;5124006;27;20126;-91
2021/05/22 03:50:31;;;;;;;2.78;1.60;;;;;;;12.35;47.92;98646.50;5117384;27;20044;-90
2021/05/22 03:52:57;;;;;;;3.10;1.75;;;;;;;12.50;47.05;98667.28;5117804;27;20040;-90
2021/05/22 03:55:23;;;;;;;2.20;1.58;;;;;;;12.45;46.96;98664.78;5119054;27;20027;-91
2021/05/22 03:57:48;;;;;;;3.13;1.80;;;;;;;12.52;46.45;98671.63;5122885;27;20050;-91
2021/05/22 04:00:16;;;;;;;3.63;1.77;;;;;;;12.57;47.81;98666.13;5119583;27;20063;-91
2021/05/22 04:02:42;;;;;;;3.75;1.92;;;;;;;12.62;46.88;98685.50;5117000;27;20035;-92
2021/05/22 04:05:09;;;;;;;4.07;1.80;;;;;;;12.51;47.09;98693.91;5122662;27;20596;-91
2021/05/22 04:07:35;;;;;;;2.58;1.70;;;;;;;12.46;50.36;98686.97;5116509;28;20028;-92
2021/05/22 04:10:01;;;;;;;3.05;2.13;;;;;;;12.47;47.88;98700.28;5116762;28;20137;-92
2021/05/22 04:12:27;;;;;;;3.45;1.85;;;;;;;12.41;47.72;98699.63;5116861;28;20055;-92
2021/05/22 04:14:52;;;;;;;3.40;2.00;;;;;;;12.45;47.74;98709.25;5117883;27;20069;-92
2021/05/22 04:17:19;;;;;;;3.67;1.90;;;;;;;12.36;47.94;98683.78;5115914;28;20044;-92
2021/05/22 04:19:45;;;;;;;4.13;1.70;;;;;;;12.40;47.81;98693.41;5122413;27;20067;-92
2021/05/22 04:22:11;;;;;;;3.80;1.80;;;;;;;12.35;48.25;98695.38;5118108;27;20488;-92
2021/05/22 04:24:37;;;;;;;4.28;1.77;;;;;;;12.34;48.14;98685.63;5120720;27;20038;-91
2021/05/22 04:27:04;;;;;;;2.92;1.70;;;;;;;12.37;48.36;98701.53;5116047;28;20076;-92
2021/05/22 04:29:29;;;;;;;4.47;1.90;;;;;;;12.46;47.98;98719.00;5121585;27;20035;-92
2021/05/22 04:31:55;;;;;;;3.28;1.90;;;;;;;12.41;48.46;98703.16;5115825;28;20473;-91
2021/05/22 04:34:22;;;;;;;3.00;1.80;;;;;;;12.45;49.17;98715.47;5128658;27;20032;-92
2021/05/22 04:36:48;;;;;;;3.30;1.70;;;;;;;12.41;49.64;98710.28;5123797;27;20042;-92
2021/05/22 04:39:14;;;;;;;3.35;1.83;;;;;;;12.29;49.58;98712.44;5116736;27;20040;-92
2021/05/22 04:41:40;;;;;;;2.28;1.75;;;;;;;12.28;50.77;98720.50;5121119;27;20043;-92
2021/05/22 04:44:06;;;;;;;4.30;1.88;;;;;;;12.29;50.04;98738.25;5120461;27;20050;-91
2021/05/22 04:46:32;;;;;;;3.00;1.80;;;;;;;12.21;50.50;98740.28;5115495;28;20027;-91
2021/05/22 04:48:59;;;;;;;4.07;1.95;;;;;;;12.21;50.40;98757.19;5117346;27;20040;-91
2021/05/22 04:51:26;;;;;;;4.15;1.77;;;;;;;12.22;50.39;98752.72;5116253;28;20397;-93
2021/05/22 04:53:59;;;;;;;3.50;1.70;;;;;;;12.17;50.72;98750.22;5131779;27;20046;-92
2021/05/22 04:56:25;;;;;;;15.93;7.60;;;;;;;12.21;49.78;98743.84;5129232;27;20039;-93
2021/05/22 04:58:51;;;;;;;17.48;8.50;;;;;;;12.41;49.66;98769.81;5117309;27;20445;-92
2021/05/22 05:01:17;;;;;;;11.10;5.43;;;;;;;12.71;48.91;98761.69;5116731;27;20067;-94
2021/05/22 05:03:43;;;;;;;9.10;4.45;;;;;;;13.20;47.67;98746.50;5115531;28;20035;-93
2021/05/22 05:06:09;;;;;;;5.38;2.60;;;;;;;13.94;45.64;98751.63;5121213;27;20042;-92
2021/05/22 05:08:35;;;;;;;5.13;2.83;;;;;;;14.37;44.29;98755.19;5123569;27;20067;-93
2021/05/22 05:11:01;;;;;;;5.80;2.40;;;;;;;14.59;43.73;98760.50;5115657;28;20047;-93
2021/05/22 05:13:27;;;;;;;6.68;2.47;;;;;;;14.56;43.71;98764.19;5118359;27;20378;-92
2021/05/22 05:15:53;;;;;;;7.53;2.38;;;;;;;14.81;44.16;98748.84;5118335;27;20403;-93
2021/05/22 05:18:19;;;;;;;4.88;2.20;;;;;;;15.25;42.77;98765.59;5116787;27;20036;-93
2021/05/22 05:20:45;;;;;;;4.47;2.30;;;;;;;15.63;42.90;98795.09;5115275;28;20578;-92
2021/05/22 05:23:10;;;;;;;4.97;2.35;;;;;;;15.85;41.79;98778.00;5117854;27;20126;-92
2021/05/22 05:25:37;;;;;;;7.10;2.38;;;;;;;16.15;41.36;98789.91;5115464;28;20497;-92
2021/05/22 05:28:03;;;;;;;4.00;2.53;;;;;;;16.43;41.64;98804.63;5120449;27;20055;-91
2021/05/22 05:30:29;;;;;;;3.58;2.20;;;;;;;16.50;40.54;98818.63;5116540;28;20031;-94
2021/05/22 05:32:55;;;;;;;4.18;2.00;;;;;;;17.02;39.70;98816.84;5116241;28;20039;-93
2021/05/22 05:35:21;;;;;;;3.40;2.10;;;;;;;17.30;38.80;98833.31;5117411;27;20073;-92
2021/05/22 05:37:47;;;;;;;3.70;1.80;;;;;;;17.18;37.86;98829.47;5124813;27;20050;-93
2021/05/22 05:40:13;;;;;;;6.20;2.55;;;;;;;16.85;38.83;98819.56;5127605;27;20039;-95
2021/05/22 05:42:40;;;;;;;2.65;1.80;;;;;;;16.79;39.22;98795.66;5125096;27;20134;-93
2021/05/22 05:45:07;;;;;;;4.57;1.90;;;;;;;16.69;40.43;98826.63;5133006;27;20039;-91
2021/05/22 05:47:33;;;;;;;2.65;1.90;;;;;;;16.59;39.96;98832.47;5124594;28;20478;-94
2021/05/22 05:49:59;;;;;;;3.20;1.95;;;;;;;16.42;40.83;98832.44;5126127;27;20462;-92
2021/05/22 05:52:27;;;;;;;3.83;1.88;;;;;;;16.31;40.01;98832.09;5116925;28;20101;-91
2021/05/22 05:54:55;;;;;;;;;;;;;;;16.41;41.01;98841.41;5122158;27;20035;-93
2021/05/22 05:57:22;;;;;;;3.83;2.00;;;;;;;16.39;41.06;98837.94;5125554;27;19916;-91
2021/05/22 05:59:49;;;;;;;2.83;1.77;;;;;;;16.22;41.68;98820.00;5120658;27;20046;-92
2021/05/22 06:02:14;;;;;;;3.25;2.03;;;;;;;16.35;42.24;98821.16;5115008;28;20043;-92
2021/05/22 06:04:40;;;;;;;6.28;1.95;;;;;;;16.37;41.35;98835.34;5115293;28;20043;-91
2021/05/22 06:07:07;;;;;;;4.43;2.00;;;;;;;16.81;41.55;98839.47;5117739;27;20066;-91
2021/05/22 06:09:33;;;;;;;3.35;2.00;;;;;;;17.11;40.22;98825.34;5117282;27;20035;-92
2021/05/22 06:11:59;;;;;;;2.38;1.70;;;;;;;17.06;40.15;98835.47;5114870;28;20048;-92
2021/05/22 06:17:24;;;;;;;3.22;1.85;;;;;;;17.23;40.85;98840.84;5183915;27;20332;-93
2021/05/22 06:19:50;;;;;;;3.20;1.83;;;;;;;16.99;40.98;98843.88;5152044;27;20051;-92
2021/05/22 06:22:15;;;;;;;3.10;2.00;;;;;;;17.36;40.95;98851.81;5153114;27;20053;-94
2021/05/22 06:24:41;;;;;;;2.85;2.00;;;;;;;17.80;39.11;98852.09;5140634;27;20065;-92
2021/05/22 06:27:07;;;;;;;3.92;2.20;;;;;;;18.04;39.10;98843.59;5148507;27;20039;-92
2021/05/22 06:29:33;;;;;;;4.78;2.00;;;;;;;18.39;38.21;98840.72;5139835;27;20032;-92
2021/05/22 06:31:59;;;;;;;3.90;2.05;;;;;;;18.51;38.37;98848.09;5134206;27;20092;-93
2021/05/22 06:34:26;;;;;;;3.63;1.92;;;;;;;18.58;38.17;98854.00;5144427;27;20112;-92
2021/05/22 06:36:53;;;;;;;2.75;1.88;;;;;;;18.66;37.22;98833.72;5150032;27;20488;-92
2021/05/22 06:39:19;;;;;;;4.50;1.73;;;;;;;18.79;38.18;98839.28;5141004;27;20039;-93
2021/05/22 06:41:45;;;;;;;7.05;2.00;;;;;;;18.62;37.82;98823.22;5145577;27;20085;-95
2021/05/22 06:44:17;;;;;;;3.78;1.70;;;;;;;18.85;37.32;98800.34;5151734;27;20063;-93
2021/05/22 06:49:41;;;;;;;4.72;2.08;;;;;;;18.49;37.82;98788.06;5133174;27;20340;-94
2021/05/22 06:52:07;;;;;;;7.55;2.10;;;;;;;18.78;37.59;98782.78;5141259;27;20051;-94
2021/05/22 06:54:34;;;;;;;4.28;2.10;;;;;;;18.92;37.60;98773.91;5133070;28;20040;-93
2021/05/22 06:57:00;;;;;;;4.85;2.00;;;;;;;19.13;38.63;98798.63;5133084;27;20126;-93
2021/05/22 06:59:26;;;;;;;3.72;1.98;;;;;;;19.20;36.57;98814.34;5132927;27;20097;-94
2021/05/22 07:01:52;;;;;;;4.30;2.00;;;;;;;19.44;36.13;98830.84;5133048;28;20043;-94
2021/05/22 07:04:18;;;;;;;6.03;2.30;;;;;;;19.89;36.34;98834.31;5132873;27;20092;-95
2021/05/22 07:06:45;;;;;;;4.50;2.30;;;;;;;19.01;35.62;98800.28;5140513;27;20422;-93
2021/05/22 07:09:11;;;;;;;5.32;2.00;;;;;;;19.40;36.70;98796.06;5132320;27;20063;-94
2021/05/22 07:11:37;;;;;;;4.28;2.60;;;;;;;19.54;35.47;98806.88;5132861;27;20067;-93
2021/05/22 07:14:03;;;;;;;3.95;1.98;;;;;;;18.73;34.99;98817.19;5133841;27;20126;-93
2021/05/22 07:16:29;;;;;;;7.20;2.50;;;;;;;18.88;36.75;98801.00;5136446;27;20066;-92
2021/05/22 07:18:55;;;;;;;5.07;2.40;;;;;;;18.45;36.87;98799.97;5132659;27;20043;-94
2021/05/22 07:21:20;;;;;;;3.28;2.10;;;;;;;19.02;35.95;98796.63;5134346;27;20388;-92
2021/05/22 07:23:47;;;;;;;4.30;2.40;;;;;;;19.46;34.96;98784.91;5135165;27;20500;-93
2021/05/22 07:26:13;;;;;;;2.78;2.00;;;;;;;19.55;35.15;98767.25;5132481;27;20130;-93
2021/05/22 07:28:39;;;;;;;4.25;2.17;;;;;;;19.88;34.15;98759.69;5131779;27;20130;-93
2021/05/22 07:31:05;;;;;;;6.75;2.10;;;;;;;20.07;34.03;98782.81;5134475;27;20038;-95
2021/05/22 07:36:30;;;;;;;4.65;1.77;;;;;;;21.20;30.44;98776.06;5133505;27;20352;-93
2021/05/22 07:38:56;;;;;;;4.47;1.70;;;;;;;20.66;30.99;98750.06;5133518;27;20051;-95
2021/05/22 07:41:22;;;;;;;3.38;1.50;;;;;;;19.92;32.29;98737.94;5133353;27;20046;-90
2021/05/22 07:43:48;;;;;;;3.20;1.70;;;;;;;19.72;33.05;98731.16;5133591;27;20047;-95
2021/05/22 07:46:14;;;;;;;4.32;1.80;;;;;;;20.13;32.03;98735.66;5133164;27;20408;-94
2021/05/22 07:48:40;;;;;;;2.25;1.70;;;;;;;20.12;32.11;98715.88;5132814;27;20046;-94
2021/05/22 07:51:06;;;;;;;3.28;1.90;;;;;;;20.11;32.71;98711.44;5133150;27;20067;-91
2021/05/22 07:53:33;;;;;;;4.05;1.92;;;;;;;19.64;32.50;98732.47;5132941;27;20039;-92
2021/05/22 07:55:58;;;;;;;4.43;1.75;;;;;;;19.71;32.65;98754.53;5127102;28;20035;-94
2021/05/22 07:58:24;;;;;;;2.72;1.70;;;;;;;19.54;33.06;98731.34;5132974;27;20408;-93
2021/05/22 08:00:50;;;;;;;3.20;1.65;;;;;;;19.58;32.83;98746.38;5132401;27;20054;-92
2021/05/22 08:03:19;;;;;;;4.00;1.70;;;;;;;19.23;33.17;98735.97;5132969;27;20373;-94
2021/05/22 08:05:45;;;;;;;3.45;1.70;;;;;;;19.16;33.26;98756.19;5132871;27;20104;-93
2021/05/22 08:08:11;;;;;;;2.92;1.70;;;;;;;19.22;33.12;98754.97;5132055;27;20485;-94
2021/05/22 08:10:43;;;;;;;3.42;1.75;;;;;;;19.04;33.44;98774.00;5132908;27;20138;-93
2021/05/22 08:13:10;;;;;;;3.85;1.90;;;;;;;19.17;33.29;98773.22;5134212;27;20031;-93
2021/05/22 08:15:36;;;;;;;3.30;1.70;;;;;;;19.29;32.89;98749.06;5133096;27;20045;-95
2021/05/22 08:18:02;;;;;;;3.97;1.90;;;;;;;19.51;33.42;98769.28;5133576;27;20496;-95
2021/05/22 08:20:28;;;;;;;6.10;1.70;;;;;;;19.40;32.92;98753.78;5135419;27;20377;-95
2021/05/22 08:22:57;;;;;;;5.57;1.70;;;;;;;19.22;33.46;98779.22;5135651;27;20070;-95
2021/05/22 08:25:26;;;;;;;8.05;2.15;;;;;;;19.36;33.16;98770.25;5134119;27;20047;-95
2021/05/22 08:27:54;;;;;;;4.00;1.80;;;;;;;19.09;33.48;98768.34;5135553;27;20126;-95
2021/05/22 08:30:23;;;;;;;11.90;2.20;;;;;;;19.27;33.70;98769.00;5135641;27;20035;-93
2021/05/22 08:32:58;;;;;;;4.88;1.90;;;;;;;19.27;33.31;98767.16;5137915;27;20052;-95
2021/05/22 08:35:24;;;;;;;6.80;2.00;;;;;;;19.72;33.28;98775.19;5135287;27;20071;-93
2021/05/22 08:37:50;;;;;;;5.47;2.17;;;;;;;20.25;32.67;98767.22;5135999;27;20043;-95
2021/05/22 08:40:16;;;;;;;3.60;1.75;;;;;;;19.92;32.39;98754.97;5134405;27;20446;-94
2021/05/22 08:42:42;;;;;;;3.85;1.80;;;;;;;19.80;33.24;98756.66;5133895;27;20047;-94
2021/05/22 08:45:11;;;;;;;23.38;3.22;;;;;;;20.31;32.77;98740.66;5134629;27;20044;-94
2021/05/22 08:47:41;;;;;;;6.70;2.10;;;;;;;20.21;32.73;98727.88;5120660;27;20047;-95
2021/05/22 08:50:10;;;;;;;7.45;1.85;;;;;;;19.97;33.25;98744.75;5119638;28;20073;-95
2021/05/22 08:52:36;;;;;;;4.45;1.95;;;;;;;20.04;33.80;98737.13;5120398;27;20485;-96
2021/05/22 08:55:06;;;;;;;5.00;2.00;;;;;;;20.31;33.11;98723.59;5120348;28;20046;-95
2021/05/22 08:57:32;;;;;;;3.65;2.00;;;;;;;20.24;33.33;98733.94;5119707;27;20077;-93
2021/05/22 08:59:58;;;;;;;4.50;2.03;;;;;;;20.21;33.20;98738.69;5119317;28;20046;-95
2021/05/22 09:02:26;;;;;;;5.07;2.28;;;;;;;20.47;33.09;98745.00;5119730;28;20043;-95
2021/05/22 09:05:21;;;;;;;3.75;1.85;;;;;;;21.15;32.74;98741.25;5119373;28;20032;-95
2021/05/22 09:07:49;;;;;;;5.10;1.83;;;;;;;21.10;33.12;98733.47;5119260;28;20093;-93
2021/05/22 09:10:19;;;;;;;4.45;1.92;;;;;;;21.35;32.43;98699.25;5119121;28;20088;-94
2021/05/22 09:12:51;;;;;;;4.15;2.20;;;;;;;22.09;31.77;98716.34;5119610;28;20097;-94
2021/05/22 09:15:19;;;;;;;6.18;2.42;;;;;;;22.78;30.72;98707.50;5118870;28;20059;-93
2021/05/22 09:17:52;;;;;;;6.82;2.47;;;;;;;22.71;30.47;98695.44;5118747;28;20040;-96
2021/05/22 09:20:24;;;;;;;4.05;2.20;;;;;;;23.09;30.47;98695.13;5118800;28;20040;-95
2021/05/22 09:23:00;;;;;;;10.65;2.40;;;;;;;22.74;30.86;98711.44;5119044;27;20047;-94
2021/05/22 09:25:27;;;;;;;6.28;2.20;;;;;;;22.64;30.97;98694.16;5119107;28;20497;-92
2021/05/22 09:27:54;;;;;;;6.38;2.20;;;;;;;21.77;32.50;98688.97;5118085;28;20035;-94
2021/05/22 09:30:26;;;;;;;7.45;2.30;;;;;;;21.51;33.18;98682.78;5117030;27;20043;-95
2021/05/22 09:32:56;;;;;;;7.53;2.33;;;;;;;22.25;32.49;98701.66;5118620;28;20369;-95
2021/05/22 09:35:23;;;;;;;10.93;2.58;;;;;;;22.46;32.69;98702.72;5118180;28;20058;-96
2021/05/22 09:37:50;;;;;;;5.15;2.08;;;;;;;22.14;32.44;98724.09;5118453;28;20067;-93
2021/05/22 09:40:19;;;;;;;11.80;2.80;;;;;;;22.02;32.83;98717.78;5118016;28;20043;-93
2021/05/22 09:42:45;;;;;;;6.50;2.63;;;;;;;21.67;32.98;98709.59;5118200;28;20048;-95
2021/05/22 09:45:32;;;;;;;6.28;2.30;;;;;;;21.96;32.84;98696.56;5118583;27;20039;-94
2021/05/22 09:48:10;;;;;;;5.13;2.45;;;;;;;22.79;32.39;98703.78;5121418;27;20514;-94
2021/05/22 09:50:38;;;;;;;128.45;13.30;;;;;;;23.29;33.30;98736.06;5118888;28;20054;-96
2021/05/22 09:53:19;;;;;;;;;;;;;;;23.26;32.89;98728.19;5120047;28;20046;-96
2021/05/22 09:56:20;;;;;;;8.98;2.67;;;;;;;22.61;32.15;98733.22;5114462;28;20014;-96
2021/05/22 09:58:49;;;;;;;8.35;2.75;;;;;;;22.39;32.37;98706.91;5121010;28;20044;-95
2021/05/22 10:01:18;;;;;;;6.97;2.97;;;;;;;21.59;33.17;98712.00;5118256;28;20123;-94
2021/05/22 10:03:45;;;;;;;;;;;;;;;21.76;33.89;98729.69;5117451;28;20039;-94
2021/05/22 10:06:13;;;;;;;7.65;2.90;;;;;;;21.47;34.96;98733.56;5118684;28;20276;-93
2021/05/22 10:08:39;;;;;;;12.57;2.80;;;;;;;22.09;34.44;98707.34;5119454;28;20044;-94
2021/05/22 10:11:06;;;;;;;6.85;2.70;;;;;;;22.28;34.77;98696.03;5119601;28;20036;-93
2021/05/22 10:13:32;;;;;;;6.38;2.50;;;;;;;21.86;34.87;98714.47;5117422;28;20043;-92
2021/05/22 10:15:59;;;;;;;8.93;2.53;;;;;;;22.10;33.73;98707.25;5117134;28;20040;-95
2021/05/22 10:18:27;;;;;;;5.95;2.90;;;;;;;22.31;34.06;98698.50;5118869;28;20044;-93
2021/05/22 10:21:04;;;;;;;7.30;2.67;;;;;;;23.05;33.18;98709.03;5118366;28;20047;-95
2021/05/22 10:23:32;;;;;;;5.03;2.40;;;;;;;23.51;31.70;98687.22;5118621;28;20096;-96
2021/05/22 10:25:59;;;;;;;6.30;2.40;;;;;;;23.82;31.70;98687.44;5118925;28;20046;-94
2021/05/22 10:28:27;;;;;;;7.03;2.50;;;;;;;23.93;31.33;98690.13;5122503;27;20107;-93
2021/05/22 10:30:56;;;;;;;6.85;2.33;;;;;;;23.41;32.33;98677.25;5117000;27;20063;-93
2021/05/22 10:33:23;;;;;;;4.72;2.55;;;;;;;23.63;32.63;98660.91;5117256;28;20039;-95
2021/05/22 10:36:02;;;;;;;7.57;2.75;;;;;;;23.55;32.47;98663.38;5116377;28;20048;-96
2021/05/22 10:41:38;;;;;;;6.13;2.45;;;;;;;24.42;31.90;98660.66;5154768;27;20362;-95
2021/05/22 10:44:06;;;;;;;6.05;2.25;;;;;;;24.52;31.97;98649.88;5155008;27;20043;-95
2021/05/22 10:46:32;;;;;;;7.25;2.45;;;;;;;25.00;30.67;98643.84;5153720;27;20496;-93
2021/05/22 10:49:00;;;;;;;6.65;2.40;;;;;;;24.75;30.82;98643.31;5154200;27;20034;-95
2021/05/22 10:51:32;;;;;;;7.25;2.70;;;;;;;24.59;30.43;98640.19;5154411;27;20090;-94
2021/05/22 10:53:59;;;;;;;4.30;2.38;;;;;;;24.12;31.08;98640.53;5154266;27;20043;-94
2021/05/22 10:56:26;;;;;;;7.80;2.45;;;;;;;24.26;31.82;98647.50;5153513;27;20051;-94
2021/05/22 10:59:15;;;;;;;5.47;2.83;;;;;;;24.63;31.57;98651.66;5153849;27;20050;-94
2021/05/22 11:01:45;;;;;;;4.57;2.67;;;;;;;24.48;31.39;98656.53;5155138;27;20484;-96
2021/05/22 11:04:27;;;;;;;8.45;2.80;;;;;;;24.19;32.03;98662.63;5154113;27;20122;-93
2021/05/22 11:06:55;;;;;;;6.85;2.53;;;;;;;23.97;31.97;98656.28;5154944;27;20072;-96
2021/05/22 11:09:58;;;;;;;5.90;2.60;;;;;;;23.45;33.08;98655.16;5153927;27;20077;-94
2021/05/22 11:12:59;;;;;;;6.00;2.55;;;;;;;23.85;33.27;98642.88;5142993;27;20043;-94
2021/05/22 11:15:48;;;;;;;4.95;2.80;;;;;;;23.92;32.86;98636.81;5068004;28;20063;-92
2021/05/22 11:18:15;;;;;;;;;;;;;;;23.94;33.29;98639.38;5069500;28;20095;-94
2021/05/22 11:20:44;;;;;;;7.15;2.58;;;;;;;23.74;34.22;98641.00;5069244;28;19952;-94
2021/05/22 11:23:10;;;;;;;7.20;3.35;;;;;;;22.72;36.39;98621.25;5058288;28;20067;-94
2021/05/22 11:25:48;;;;;;;11.55;4.38;;;;;;;22.83;36.23;98628.50;5069004;28;20044;-92
2021/05/22 11:31:10;;;;;;;7.00;2.95;;;;;;;23.16;36.99;98647.53;5132811;27;20328;-94
2021/05/22 11:33:35;;;;;;;8.63;2.65;;;;;;;23.38;36.28;98652.09;5132831;27;20035;-94
2021/05/22 11:36:17;;;;;;;6.15;2.90;;;;;;;23.20;36.89;98645.44;5116111;28;20039;-94
2021/05/22 11:38:48;;;;;;;9.93;3.20;;;;;;;22.89;38.05;98645.16;5137954;27;20032;-93
2021/05/22 11:41:29;;;;;;;6.82;2.72;;;;;;;23.22;37.94;98648.03;5143127;27;20039;-92
2021/05/22 11:44:07;;;;;;;7.93;3.00;;;;;;;22.63;38.80;98647.22;5137162;27;20046;-91
2021/05/22 11:46:34;;;;;;;4.97;2.53;;;;;;;22.43;39.49;98637.09;5133295;27;20059;-93
2021/05/22 11:49:06;;;;;;;8.25;3.10;;;;;;;22.28;39.89;98661.66;5133597;27;20040;-93
2021/05/22 11:51:42;;;;;;;8.15;3.25;;;;;;;22.88;39.29;98618.16;5135182;27;20043;-91
2021/05/22 11:54:15;;;;;;;7.82;3.03;;;;;;;23.82;37.69;98637.72;5142794;27;20039;-91